KBKE

Baker City Municipal Airport

Baker City, Oregon, USA
KBKE 210520Z 2106/2206 31009KT 2SM FU FEW100
Issued Valid From Valid To
Aug-21 @ 05:20 UTC
(12 hours ago)
Aug-21 @ 06:00 UTC
(12 hours ago)
Aug-22 @ 06:00 UTC
(in 12 hours)
Aug-21 @ 06:00 to Aug-22 @ 06:00
KBKE 210520Z 2106/2206 31009KT 2SM FU FEW100
Wind Visibility Clouds Conditions
310° at 9 knots 2 miles
  • Few at 10,000' AGL
  • Smoke
KBKE 210520Z 2106/2206 31009KT 2SM FU FEW100
Issued Aug-21 @ 05:20 UTC
(12 hours ago)
Valid From Aug-21 @ 06:00 UTC
(12 hours ago)
Valid To Aug-22 @ 06:00 UTC
(in 12 hours)
Aug-21 @ 06:00 - Aug-22 @ 06:00
Wind Visibility
310° at 9 knots 2 miles
Clouds
  • Few at 10,000' AGL
Conditions
  • Smoke